sensor_id;sensor_type;location;lat;lon;timestamp;pressure;altitude;pressure_sealevel;temperature
48854;BMP280;34673;52.808;17.856;2023-12-28T00:02:24;100422.78;;;2.09
48854;BMP280;34673;52.808;17.856;2023-12-28T00:04:51;100427.03;;;2.10
48854;BMP280;34673;52.808;17.856;2023-12-28T00:07:18;100421.16;;;2.13
48854;BMP280;34673;52.808;17.856;2023-12-28T00:09:45;100430.59;;;2.15
48854;BMP280;34673;52.808;17.856;2023-12-28T00:12:13;100425.47;;;2.15
48854;BMP280;34673;52.808;17.856;2023-12-28T00:14:40;100411.88;;;2.16
48854;BMP280;34673;52.808;17.856;2023-12-28T00:17:07;100409.38;;;2.18
48854;BMP280;34673;52.808;17.856;2023-12-28T00:19:34;100419.59;;;2.18
48854;BMP280;34673;52.808;17.856;2023-12-28T00:22:02;100406.78;;;2.16
48854;BMP280;34673;52.808;17.856;2023-12-28T00:24:29;100393.09;;;2.14
48854;BMP280;34673;52.808;17.856;2023-12-28T00:26:56;100399.25;;;2.21
48854;BMP280;34673;52.808;17.856;2023-12-28T00:29:23;100376.00;;;2.10
48854;BMP280;34673;52.808;17.856;2023-12-28T00:31:50;100389.97;;;2.25
48854;BMP280;34673;52.808;17.856;2023-12-28T00:34:17;100390.84;;;2.25
48854;BMP280;34673;52.808;17.856;2023-12-28T00:36:45;100389.97;;;2.25
48854;BMP280;34673;52.808;17.856;2023-12-28T00:39:12;100376.41;;;2.26
48854;BMP280;34673;52.808;17.856;2023-12-28T00:41:39;100371.34;;;2.27
48854;BMP280;34673;52.808;17.856;2023-12-28T00:44:06;100356.66;;;2.18
48854;BMP280;34673;52.808;17.856;2023-12-28T00:46:36;100361.09;;;2.26
48854;BMP280;34673;52.808;17.856;2023-12-28T00:49:04;100365.38;;;2.27
48854;BMP280;34673;52.808;17.856;2023-12-28T00:51:36;100353.41;;;2.24
48854;BMP280;34673;52.808;17.856;2023-12-28T00:54:06;100347.44;;;2.24
48854;BMP280;34673;52.808;17.856;2023-12-28T00:56:33;100338.09;;;2.24
48854;BMP280;34673;52.808;17.856;2023-12-28T00:59:00;100322.78;;;2.24
48854;BMP280;34673;52.808;17.856;2023-12-28T01:01:29;100310.78;;;2.20
48854;BMP280;34673;52.808;17.856;2023-12-28T01:03:57;100309.75;;;2.13
48854;BMP280;34673;52.808;17.856;2023-12-28T01:06:25;100325.13;;;2.16
48854;BMP280;34673;52.808;17.856;2023-12-28T01:08:56;100311.56;;;2.17
48854;BMP280;34673;52.808;17.856;2023-12-28T01:11:23;100308.16;;;2.18
48854;BMP280;34673;52.808;17.856;2023-12-28T01:13:51;100288.47;;;2.13
48854;BMP280;34673;52.808;17.856;2023-12-28T01:16:18;100294.44;;;2.13
48854;BMP280;34673;52.808;17.856;2023-12-28T01:18:46;100287.59;;;2.12
48854;BMP280;34673;52.808;17.856;2023-12-28T01:21:13;100284.22;;;2.13
48854;BMP280;34673;52.808;17.856;2023-12-28T01:23:40;100284.22;;;2.13
48854;BMP280;34673;52.808;17.856;2023-12-28T01:26:12;100289.47;;;2.19
48854;BMP280;34673;52.808;17.856;2023-12-28T01:28:40;100296.31;;;2.20
48854;BMP280;34673;52.808;17.856;2023-12-28T01:31:08;100293.75;;;2.20
48854;BMP280;34673;52.808;17.856;2023-12-28T01:33:36;100289.47;;;2.19
48854;BMP280;34673;52.808;17.856;2023-12-28T01:36:34;100287.75;;;2.18
48854;BMP280;34673;52.808;17.856;2023-12-28T01:39:01;100286.03;;;2.17
48854;BMP280;34673;52.808;17.856;2023-12-28T01:41:28;100287.81;;;2.21
48854;BMP280;34673;52.808;17.856;2023-12-28T01:43:55;100281.88;;;2.22
48854;BMP280;34673;52.808;17.856;2023-12-28T01:46:23;100265.75;;;2.24
48854;BMP280;34673;52.808;17.856;2023-12-28T01:48:50;100261.44;;;2.21
48854;BMP280;34673;52.808;17.856;2023-12-28T01:51:19;100263.22;;;2.24
48854;BMP280;34673;52.808;17.856;2023-12-28T01:53:48;100257.19;;;2.21
48854;BMP280;34673;52.808;17.856;2023-12-28T01:56:21;100257.19;;;2.21
48854;BMP280;34673;52.808;17.856;2023-12-28T01:58:49;100252.16;;;2.25
48854;BMP280;34673;52.808;17.856;2023-12-28T02:01:18;100255.56;;;2.24
48854;BMP280;34673;52.808;17.856;2023-12-28T02:03:46;100241.03;;;2.21
48854;BMP280;34673;52.808;17.856;2023-12-28T02:06:14;100236.84;;;2.25
48854;BMP280;34673;52.808;17.856;2023-12-28T02:08:46;100226.66;;;2.25
48854;BMP280;34673;52.808;17.856;2023-12-28T02:11:13;100208.69;;;2.20
48854;BMP280;34673;52.808;17.856;2023-12-28T02:13:41;100212.13;;;2.22
48854;BMP280;34673;52.808;17.856;2023-12-28T02:16:13;100199.34;;;2.20
48854;BMP280;34673;52.808;17.856;2023-12-28T02:18:44;100181.50;;;2.22
48854;BMP280;34673;52.808;17.856;2023-12-28T02:21:15;100173.81;;;2.20
48854;BMP280;34673;52.808;17.856;2023-12-28T02:23:49;100160.22;;;2.21
48854;BMP280;34673;52.808;17.856;2023-12-28T02:26:17;100150.03;;;2.21
48854;BMP280;34673;52.808;17.856;2023-12-28T02:28:46;100140.47;;;2.13
48854;BMP280;34673;52.808;17.856;2023-12-28T02:31:30;100136.28;;;2.16
48854;BMP280;34673;52.808;17.856;2023-12-28T02:34:12;100132.84;;;2.14
48854;BMP280;34673;52.808;17.856;2023-12-28T02:36:45;100120.84;;;2.10
48854;BMP280;34673;52.808;17.856;2023-12-28T02:39:15;100129.41;;;2.12
48854;BMP280;34673;52.808;17.856;2023-12-28T02:41:44;100134.53;;;2.14
48854;BMP280;34673;52.808;17.856;2023-12-28T02:44:12;100124.31;;;2.12
48854;BMP280;34673;52.808;17.856;2023-12-28T02:46:40;100109.81;;;2.11
48854;BMP280;34673;52.808;17.856;2023-12-28T02:49:07;100099.53;;;2.08
48854;BMP280;34673;52.808;17.856;2023-12-28T02:51:34;100098.72;;;2.09
48854;BMP280;34673;52.808;17.856;2023-12-28T02:54:03;100081.69;;;2.08
48854;BMP280;34673;52.808;17.856;2023-12-28T02:56:30;100078.22;;;2.06
48854;BMP280;34673;52.808;17.856;2023-12-28T02:58:59;100068.88;;;2.05
48854;BMP280;34673;52.808;17.856;2023-12-28T03:01:26;100055.97;;;1.99
48854;BMP280;34673;52.808;17.856;2023-12-28T03:03:54;100054.41;;;2.04
48854;BMP280;34673;52.808;17.856;2023-12-28T03:06:21;100044.19;;;2.04
48854;BMP280;34673;52.808;17.856;2023-12-28T03:08:49;100042.44;;;2.03
48854;BMP280;34673;52.808;17.856;2023-12-28T03:11:16;100031.31;;;1.99
48854;BMP280;34673;52.808;17.856;2023-12-28T03:13:43;100020.28;;;2.00
48854;BMP280;34673;52.808;17.856;2023-12-28T03:16:10;100016.03;;;1.99
48854;BMP280;34673;52.808;17.856;2023-12-28T03:18:38;100027.16;;;2.03
48854;BMP280;34673;52.808;17.856;2023-12-28T03:21:05;100013.47;;;1.99
48854;BMP280;34673;52.808;17.856;2023-12-28T03:23:33;100021.22;;;2.04
48854;BMP280;34673;52.808;17.856;2023-12-28T03:26:00;100013.56;;;2.04
48854;BMP280;34673;52.808;17.856;2023-12-28T03:28:28;99993.16;;;2.04
48854;BMP280;34673;52.808;17.856;2023-12-28T03:30:55;99995.91;;;2.13
48854;BMP280;34673;52.808;17.856;2023-12-28T03:33:22;99986.59;;;2.15
48854;BMP280;34673;52.808;17.856;2023-12-28T03:35:49;99969.47;;;2.11
48854;BMP280;34673;52.808;17.856;2023-12-28T03:38:18;99973.00;;;2.16
48854;BMP280;34673;52.808;17.856;2023-12-28T03:40:47;99965.19;;;2.09
48854;BMP280;34673;52.808;17.856;2023-12-28T03:43:17;99988.19;;;2.10
48854;BMP280;34673;52.808;17.856;2023-12-28T03:45:44;99974.63;;;2.13
48854;BMP280;34673;52.808;17.856;2023-12-28T03:48:11;99978.03;;;2.13
48854;BMP280;34673;52.808;17.856;2023-12-28T03:50:39;99973.78;;;2.14
48854;BMP280;34673;52.808;17.856;2023-12-28T03:53:06;99959.34;;;2.14
48854;BMP280;34673;52.808;17.856;2023-12-28T03:55:33;99974.63;;;2.14
48854;BMP280;34673;52.808;17.856;2023-12-28T03:58:00;99960.22;;;2.16
48854;BMP280;34673;52.808;17.856;2023-12-28T04:00:28;99954.31;;;2.17
48854;BMP280;34673;52.808;17.856;2023-12-28T04:02:55;99954.38;;;2.20
48854;BMP280;34673;52.808;17.856;2023-12-28T04:05:25;99951.81;;;2.20
48854;BMP280;34673;52.808;17.856;2023-12-28T04:07:52;99950.13;;;2.21
48854;BMP280;34673;52.808;17.856;2023-12-28T04:10:28;99951.88;;;2.24
48854;BMP280;34673;52.808;17.856;2023-12-28T04:12:57;99944.22;;;2.24
48854;BMP280;34673;52.808;17.856;2023-12-28T04:15:26;99943.41;;;2.26
48854;BMP280;34673;52.808;17.856;2023-12-28T04:17:54;99926.34;;;2.24
48854;BMP280;34673;52.808;17.856;2023-12-28T04:20:21;99935.72;;;2.25
48854;BMP280;34673;52.808;17.856;2023-12-28T04:22:49;99945.13;;;2.27
48854;BMP280;34673;52.808;17.856;2023-12-28T04:25:17;99932.34;;;2.26
48854;BMP280;34673;52.808;17.856;2023-12-28T04:27:44;99932.47;;;2.32
48854;BMP280;34673;52.808;17.856;2023-12-28T04:30:14;99935.03;;;2.33
48854;BMP280;34673;52.808;17.856;2023-12-28T04:32:42;99932.56;;;2.38
48854;BMP280;34673;52.808;17.856;2023-12-28T04:35:09;99915.53;;;2.37
48854;BMP280;34673;52.808;17.856;2023-12-28T04:37:36;99924.16;;;2.42
48854;BMP280;34673;52.808;17.856;2023-12-28T04:40:04;99909.63;;;2.41
48854;BMP280;34673;52.808;17.856;2023-12-28T04:42:31;99912.25;;;2.44
48854;BMP280;34673;52.808;17.856;2023-12-28T04:44:58;99915.69;;;2.46
48854;BMP280;34673;52.808;17.856;2023-12-28T04:47:26;99919.19;;;2.51
48854;BMP280;34673;52.808;17.856;2023-12-28T04:49:53;99908.97;;;2.51
48854;BMP280;34673;52.808;17.856;2023-12-28T04:52:20;99911.56;;;2.54
48854;BMP280;34673;52.808;17.856;2023-12-28T04:54:47;99914.31;;;2.63
48854;BMP280;34673;52.808;17.856;2023-12-28T04:57:14;99905.81;;;2.64
48854;BMP280;34673;52.808;17.856;2023-12-28T04:59:42;99910.19;;;2.72
48854;BMP280;34673;52.808;17.856;2023-12-28T05:02:09;99919.59;;;2.76
48854;BMP280;34673;52.808;17.856;2023-12-28T05:04:39;99912.84;;;2.78
48854;BMP280;34673;52.808;17.856;2023-12-28T05:07:06;99909.47;;;2.82
48854;BMP280;34673;52.808;17.856;2023-12-28T05:09:33;99896.66;;;2.79
48854;BMP280;34673;52.808;17.856;2023-12-28T05:12:01;99912.97;;;2.87
48854;BMP280;34673;52.808;17.856;2023-12-28T05:14:29;99904.41;;;2.85
48854;BMP280;34673;52.808;17.856;2023-12-28T05:16:56;99897.72;;;2.93
48854;BMP280;34673;52.808;17.856;2023-12-28T05:19:23;99894.44;;;3.00
48854;BMP280;34673;52.808;17.856;2023-12-28T05:21:51;99883.44;;;3.04
48854;BMP280;34673;52.808;17.856;2023-12-28T05:24:18;99879.25;;;3.09
48854;BMP280;34673;52.808;17.856;2023-12-28T05:26:45;99872.50;;;3.15
48854;BMP280;34673;52.808;17.856;2023-12-28T05:29:12;99869.22;;;3.25
48854;BMP280;34673;52.808;17.856;2023-12-28T05:31:39;99888.09;;;3.33
48854;BMP280;34673;52.808;17.856;2023-12-28T05:34:07;99889.09;;;3.44
48854;BMP280;34673;52.808;17.856;2023-12-28T05:36:34;99874.72;;;3.52
48854;BMP280;34673;52.808;17.856;2023-12-28T05:39:01;99875.75;;;3.67
48854;BMP280;34673;52.808;17.856;2023-12-28T05:41:29;99883.56;;;3.79
48854;BMP280;34673;52.808;17.856;2023-12-28T05:43:56;99881.97;;;3.90
48854;BMP280;34673;52.808;17.856;2023-12-28T05:46:23;99869.31;;;3.99
48854;BMP280;34673;52.808;17.856;2023-12-28T05:48:50;99863.38;;;4.07
48854;BMP280;34673;52.808;17.856;2023-12-28T05:51:18;99861.75;;;4.12
48854;BMP280;34673;52.808;17.856;2023-12-28T05:53:48;99875.41;;;4.14
48854;BMP280;34673;52.808;17.856;2023-12-28T05:56:15;99860.94;;;4.17
48854;BMP280;34673;52.808;17.856;2023-12-28T05:58:42;99868.66;;;4.22
48854;BMP280;34673;52.808;17.856;2023-12-28T06:01:09;99864.47;;;4.27
48854;BMP280;34673;52.808;17.856;2023-12-28T06:03:36;99852.53;;;4.29
48854;BMP280;34673;52.808;17.856;2023-12-28T06:06:04;99850.00;;;4.32
48854;BMP280;34673;52.808;17.856;2023-12-28T06:08:31;99851.72;;;4.33
48854;BMP280;34673;52.808;17.856;2023-12-28T06:10:58;99858.59;;;4.37
48854;BMP280;34673;52.808;17.856;2023-12-28T06:13:25;99863.72;;;4.40
48854;BMP280;34673;52.808;17.856;2023-12-28T06:15:52;99865.44;;;4.41
48854;BMP280;34673;52.808;17.856;2023-12-28T06:18:20;99869.72;;;4.44
48854;BMP280;34673;52.808;17.856;2023-12-28T06:20:47;99862.94;;;4.46
48854;BMP280;34673;52.808;17.856;2023-12-28T06:23:14;99859.50;;;4.46
48854;BMP280;34673;52.808;17.856;2023-12-28T06:25:41;99863.78;;;4.47
48854;BMP280;34673;52.808;17.856;2023-12-28T06:28:09;99867.22;;;4.49
48854;BMP280;34673;52.808;17.856;2023-12-28T06:30:36;99870.56;;;4.44
48854;BMP280;34673;52.808;17.856;2023-12-28T06:33:03;99872.31;;;4.46
48854;BMP280;34673;52.808;17.856;2023-12-28T06:35:31;99874.00;;;4.43
48854;BMP280;34673;52.808;17.856;2023-12-28T06:37:58;99872.31;;;4.46
48854;BMP280;34673;52.808;17.856;2023-12-28T06:40:25;99877.44;;;4.46
48854;BMP280;34673;52.808;17.856;2023-12-28T06:42:52;99883.38;;;4.43
48854;BMP280;34673;52.808;17.856;2023-12-28T06:45:19;99872.25;;;4.39
48854;BMP280;34673;52.808;17.856;2023-12-28T06:47:49;99871.34;;;4.36
48854;BMP280;34673;52.808;17.856;2023-12-28T06:50:16;99887.66;;;4.42
48854;BMP280;34673;52.808;17.856;2023-12-28T06:52:43;99896.16;;;4.41
48854;BMP280;34673;52.808;17.856;2023-12-28T06:55:11;99894.44;;;4.37
48854;BMP280;34673;52.808;17.856;2023-12-28T06:57:38;99903.84;;;4.41
48854;BMP280;34673;52.808;17.856;2023-12-28T07:00:05;99908.09;;;4.39
48854;BMP280;34673;52.808;17.856;2023-12-28T07:02:33;99912.38;;;4.37
48854;BMP280;34673;52.808;17.856;2023-12-28T07:05:01;99914.91;;;4.34
48854;BMP280;34673;52.808;17.856;2023-12-28T07:07:28;99915.72;;;4.32
48854;BMP280;34673;52.808;17.856;2023-12-28T07:09:55;99916.44;;;4.20
48854;BMP280;34673;52.808;17.856;2023-12-28T07:12:22;99919.88;;;4.22
48854;BMP280;34673;52.808;17.856;2023-12-28T07:14:50;99923.19;;;4.15
48854;BMP280;34673;52.808;17.856;2023-12-28T07:17:17;99921.41;;;4.05
48854;BMP280;34673;52.808;17.856;2023-12-28T07:19:45;99941.06;;;4.07
48854;BMP280;34673;52.808;17.856;2023-12-28T07:22:12;99935.00;;;4.00
48854;BMP280;34673;52.808;17.856;2023-12-28T07:24:39;99951.19;;;4.01
48854;BMP280;34673;52.808;17.856;2023-12-28T07:27:07;99961.44;;;3.99
48854;BMP280;34673;52.808;17.856;2023-12-28T07:29:34;99961.44;;;3.99
48854;BMP280;34673;52.808;17.856;2023-12-28T07:32:01;99966.50;;;3.98
48854;BMP280;34673;52.808;17.856;2023-12-28T07:34:28;99969.09;;;3.99
48854;BMP280;34673;52.808;17.856;2023-12-28T07:36:55;99977.59;;;3.98
48854;BMP280;34673;52.808;17.856;2023-12-28T07:39:22;99981.06;;;4.00
48854;BMP280;34673;52.808;17.856;2023-12-28T07:41:50;99975.09;;;4.02
48854;BMP280;34673;52.808;17.856;2023-12-28T07:44:17;99987.88;;;4.02
48854;BMP280;34673;52.808;17.856;2023-12-28T07:46:44;99986.25;;;4.07
48854;BMP280;34673;52.808;17.856;2023-12-28T07:49:11;99985.41;;;4.08
48854;BMP280;34673;52.808;17.856;2023-12-28T07:51:39;99993.09;;;4.08
48854;BMP280;34673;52.808;17.856;2023-12-28T07:54:06;99993.13;;;4.11
48854;BMP280;34673;52.808;17.856;2023-12-28T07:56:33;99984.59;;;4.12
48854;BMP280;34673;52.808;17.856;2023-12-28T07:59:00;99982.09;;;4.16
48854;BMP280;34673;52.808;17.856;2023-12-28T08:01:27;99988.09;;;4.20
48854;BMP280;34673;52.808;17.856;2023-12-28T08:03:55;99994.97;;;4.21
48854;BMP280;34673;52.808;17.856;2023-12-28T08:06:22;100004.38;;;4.25
48854;BMP280;34673;52.808;17.856;2023-12-28T08:08:49;100011.25;;;4.26
48854;BMP280;34673;52.808;17.856;2023-12-28T08:11:16;100000.19;;;4.30
48854;BMP280;34673;52.808;17.856;2023-12-28T08:13:43;100004.47;;;4.33
48854;BMP280;34673;52.808;17.856;2023-12-28T08:16:10;100007.94;;;4.35
48854;BMP280;34673;52.808;17.856;2023-12-28T08:18:38;100000.25;;;4.36
48854;BMP280;34673;52.808;17.856;2023-12-28T08:21:05;99981.47;;;4.34
48854;BMP280;34673;52.808;17.856;2023-12-28T08:23:32;99993.47;;;4.41
48854;BMP280;34673;52.808;17.856;2023-12-28T08:25:59;99997.81;;;4.46
48854;BMP280;34673;52.808;17.856;2023-12-28T08:28:26;99996.94;;;4.47
48854;BMP280;34673;52.808;17.856;2023-12-28T08:30:56;99992.72;;;4.50
48854;BMP280;34673;52.808;17.856;2023-12-28T08:33:23;99998.75;;;4.54
48854;BMP280;34673;52.808;17.856;2023-12-28T08:35:50;99996.19;;;4.55
48854;BMP280;34673;52.808;17.856;2023-12-28T08:38:18;99991.97;;;4.59
48854;BMP280;34673;52.808;17.856;2023-12-28T08:40:45;99985.16;;;4.64
48854;BMP280;34673;52.808;17.856;2023-12-28T08:43:12;99988.63;;;4.69
48854;BMP280;34673;52.808;17.856;2023-12-28T08:45:39;99987.84;;;4.75
48854;BMP280;34673;52.808;17.856;2023-12-28T08:48:07;99986.19;;;4.80
48854;BMP280;34673;52.808;17.856;2023-12-28T08:50:34;99993.94;;;4.87
48854;BMP280;34673;52.808;17.856;2023-12-28T08:53:01;99994.88;;;4.96
48854;BMP280;34673;52.808;17.856;2023-12-28T08:55:28;100000.88;;;4.98
48854;BMP280;34673;52.808;17.856;2023-12-28T08:57:56;100016.31;;;5.07
48854;BMP280;34673;52.808;17.856;2023-12-28T09:00:23;99994.97;;;5.09
48854;BMP280;34673;52.808;17.856;2023-12-28T09:02:51;99995.88;;;5.13
48854;BMP280;34673;52.808;17.856;2023-12-28T09:05:18;99995.94;;;5.22
48854;BMP280;34673;52.808;17.856;2023-12-28T09:07:46;99998.50;;;5.22
48854;BMP280;34673;52.808;17.856;2023-12-28T09:10:14;99996.00;;;5.28
48854;BMP280;34673;52.808;17.856;2023-12-28T09:12:41;99988.31;;;5.30
48854;BMP280;34673;52.808;17.856;2023-12-28T09:15:09;99996.03;;;5.34
48854;BMP280;34673;52.808;17.856;2023-12-28T09:17:36;99999.50;;;5.40
48854;BMP280;34673;52.808;17.856;2023-12-28T09:20:04;99999.50;;;5.43
48854;BMP280;34673;52.808;17.856;2023-12-28T09:22:33;100006.38;;;5.44
48854;BMP280;34673;52.808;17.856;2023-12-28T09:25:00;99995.28;;;5.46
48854;BMP280;34673;52.808;17.856;2023-12-28T09:27:28;99997.00;;;5.53
48854;BMP280;34673;52.808;17.856;2023-12-28T09:29:55;99980.78;;;5.53
48854;BMP280;34673;52.808;17.856;2023-12-28T09:32:22;99996.19;;;5.56
48854;BMP280;34673;52.808;17.856;2023-12-28T09:34:49;99994.50;;;5.58
48854;BMP280;34673;52.808;17.856;2023-12-28T09:37:17;99984.22;;;5.58
48854;BMP280;34673;52.808;17.856;2023-12-28T09:39:45;99982.53;;;5.60
48854;BMP280;34673;52.808;17.856;2023-12-28T09:43:18;99983.41;;;5.64
48854;BMP280;34673;52.808;17.856;2023-12-28T09:45:35;99986.00;;;5.65
48854;BMP280;34673;52.808;17.856;2023-12-28T09:48:02;99991.13;;;5.65
48854;BMP280;34673;52.808;17.856;2023-12-28T09:50:32;99992.84;;;5.72
48854;BMP280;34673;52.808;17.856;2023-12-28T09:52:59;99994.59;;;5.70
48854;BMP280;34673;52.808;17.856;2023-12-28T09:55:26;100006.56;;;5.77
48854;BMP280;34673;52.808;17.856;2023-12-28T09:57:54;100012.59;;;5.81
48854;BMP280;34673;52.808;17.856;2023-12-28T10:00:23;100005.75;;;5.80
48854;BMP280;34673;52.808;17.856;2023-12-28T10:02:50;99997.22;;;5.81
48854;BMP280;34673;52.808;17.856;2023-12-28T10:05:17;99982.66;;;5.85
48854;BMP280;34673;52.808;17.856;2023-12-28T10:07:45;99986.94;;;5.89
48854;BMP280;34673;52.808;17.856;2023-12-28T10:10:17;99994.72;;;5.93
48854;BMP280;34673;52.808;17.856;2023-12-28T10:12:46;99994.75;;;5.95
48854;BMP280;34673;52.808;17.856;2023-12-28T10:15:14;100000.75;;;5.98
48854;BMP280;34673;52.808;17.856;2023-12-28T10:17:41;99998.19;;;6.00
48854;BMP280;34673;52.808;17.856;2023-12-28T10:20:08;99996.47;;;6.02
48854;BMP280;34673;52.808;17.856;2023-12-28T10:22:37;99995.63;;;6.02
48854;BMP280;34673;52.808;17.856;2023-12-28T10:25:05;99995.63;;;6.03
48854;BMP280;34673;52.808;17.856;2023-12-28T10:27:32;99986.22;;;6.05
48854;BMP280;34673;52.808;17.856;2023-12-28T10:30:04;99994.78;;;6.07
48854;BMP280;34673;52.808;17.856;2023-12-28T10:32:32;99988.78;;;6.07
48854;BMP280;34673;52.808;17.856;2023-12-28T10:35:00;100001.66;;;6.08
48854;BMP280;34673;52.808;17.856;2023-12-28T10:37:31;100001.66;;;6.08
48854;BMP280;34673;52.808;17.856;2023-12-28T10:39:59;100003.34;;;6.09
48854;BMP280;34673;52.808;17.856;2023-12-28T10:45:02;99986.25;;;6.11
48854;BMP280;34673;52.808;17.856;2023-12-28T10:47:37;99975.97;;;6.11
48854;BMP280;34673;52.808;17.856;2023-12-28T10:50:05;99986.25;;;6.14
48854;BMP280;34673;52.808;17.856;2023-12-28T10:52:34;99986.28;;;6.17
48854;BMP280;34673;52.808;17.856;2023-12-28T10:55:13;99981.13;;;6.17
48854;BMP280;34673;52.808;17.856;2023-12-28T10:58:09;99982.00;;;6.19
48854;BMP280;34673;52.808;17.856;2023-12-28T11:00:52;99976.00;;;6.17
48854;BMP280;34673;52.808;17.856;2023-12-28T11:03:29;99979.44;;;6.22
48854;BMP280;34673;52.808;17.856;2023-12-28T11:05:57;99976.03;;;6.27
48854;BMP280;34673;52.808;17.856;2023-12-28T11:08:25;99980.31;;;6.28
48854;BMP280;34673;52.808;17.856;2023-12-28T11:10:53;99978.63;;;6.30
48854;BMP280;34673;52.808;17.856;2023-12-28T11:13:21;99982.91;;;6.31
48854;BMP280;34673;52.808;17.856;2023-12-28T11:15:49;99979.47;;;6.32
48854;BMP280;34673;52.808;17.856;2023-12-28T11:18:18;99988.03;;;6.32
48854;BMP280;34673;52.808;17.856;2023-12-28T11:20:49;99986.34;;;6.33
48854;BMP280;34673;52.808;17.856;2023-12-28T11:23:16;99989.78;;;6.38
48854;BMP280;34673;52.808;17.856;2023-12-28T11:25:44;99980.34;;;6.40
48854;BMP280;34673;52.808;17.856;2023-12-28T11:28:13;99975.22;;;6.40
48854;BMP280;34673;52.808;17.856;2023-12-28T11:30:42;99979.50;;;6.44
48854;BMP280;34673;52.808;17.856;2023-12-28T11:33:12;99960.66;;;6.39
48854;BMP280;34673;52.808;17.856;2023-12-28T11:35:40;99975.25;;;6.52
48854;BMP280;34673;52.808;17.856;2023-12-28T11:38:09;99969.25;;;6.53
48854;BMP280;34673;52.808;17.856;2023-12-28T11:40:45;99970.13;;;6.55
48854;BMP280;34673;52.808;17.856;2023-12-28T11:43:19;99972.69;;;6.58
48854;BMP280;34673;52.808;17.856;2023-12-28T11:45:50;99967.53;;;6.61
48854;BMP280;34673;52.808;17.856;2023-12-28T11:48:25;99960.69;;;6.63
48854;BMP280;34673;52.808;17.856;2023-12-28T11:50:58;99961.56;;;6.65
48854;BMP280;34673;52.808;17.856;2023-12-28T11:53:25;99959.84;;;6.66
48854;BMP280;34673;52.808;17.856;2023-12-28T11:55:59;99964.16;;;6.72
48854;BMP280;34673;52.808;17.856;2023-12-28T11:58:30;99963.28;;;6.71
48854;BMP280;34673;52.808;17.856;2023-12-28T12:00:57;99959.00;;;6.75
48854;BMP280;34673;52.808;17.856;2023-12-28T12:03:25;99959.88;;;6.77
48854;BMP280;34673;52.808;17.856;2023-12-28T12:05:55;99962.44;;;6.80
48854;BMP280;34673;52.808;17.856;2023-12-28T12:08:24;99955.59;;;6.79
48854;BMP280;34673;52.808;17.856;2023-12-28T12:11:01;99955.59;;;6.82
48854;BMP280;34673;52.808;17.856;2023-12-28T12:13:31;99949.59;;;6.83
48854;BMP280;34673;52.808;17.856;2023-12-28T12:15:58;99961.59;;;6.85
48854;BMP280;34673;52.808;17.856;2023-12-28T12:18:26;99948.72;;;6.84
48854;BMP280;34673;52.808;17.856;2023-12-28T12:20:54;99940.16;;;6.82
48854;BMP280;34673;52.808;17.856;2023-12-28T12:23:21;99951.31;;;6.85
48854;BMP280;34673;52.808;17.856;2023-12-28T12:25:48;99958.16;;;6.88
48854;BMP280;34673;52.808;17.856;2023-12-28T12:28:16;99959.03;;;6.90
48854;BMP280;34673;52.808;17.856;2023-12-28T12:30:56;99953.88;;;6.90
48854;BMP280;34673;52.808;17.856;2023-12-28T12:33:25;99949.59;;;6.91
48854;BMP280;34673;52.808;17.856;2023-12-28T12:35:54;99955.59;;;6.91
48854;BMP280;34673;52.808;17.856;2023-12-28T12:38:21;99958.16;;;6.91
48854;BMP280;34673;52.808;17.856;2023-12-28T12:40:53;99958.16;;;6.91
48854;BMP280;34673;52.808;17.856;2023-12-28T12:43:21;99965.88;;;6.91
48854;BMP280;34673;52.808;17.856;2023-12-28T12:45:49;99961.56;;;6.92
48854;BMP280;34673;52.808;17.856;2023-12-28T12:48:16;99969.31;;;6.93
48854;BMP280;34673;52.808;17.856;2023-12-28T12:50:45;99953.88;;;6.90
48854;BMP280;34673;52.808;17.856;2023-12-28T12:53:12;99959.03;;;6.90
48854;BMP280;34673;52.808;17.856;2023-12-28T12:55:39;99953.03;;;6.90
48854;BMP280;34673;52.808;17.856;2023-12-28T12:58:12;99959.88;;;6.92
48854;BMP280;34673;52.808;17.856;2023-12-28T13:00:40;99960.72;;;6.94
48854;BMP280;34673;52.808;17.856;2023-12-28T13:03:08;99974.44;;;6.96
48854;BMP280;34673;52.808;17.856;2023-12-28T13:05:36;99960.72;;;6.94
48854;BMP280;34673;52.808;17.856;2023-12-28T13:08:11;99960.72;;;6.94
48854;BMP280;34673;52.808;17.856;2023-12-28T13:10:38;99967.59;;;7.01
48854;BMP280;34673;52.808;17.856;2023-12-28T13:13:08;99967.59;;;7.04
48854;BMP280;34673;52.808;17.856;2023-12-28T13:15:36;99960.75;;;7.06
48854;BMP280;34673;52.808;17.856;2023-12-28T13:18:03;99975.31;;;7.09
48854;BMP280;34673;52.808;17.856;2023-12-28T13:20:30;99972.72;;;7.10
48854;BMP280;34673;52.808;17.856;2023-12-28T13:22:57;99969.31;;;7.12
48854;BMP280;34673;52.808;17.856;2023-12-28T13:25:25;99963.31;;;7.14
48854;BMP280;34673;52.808;17.856;2023-12-28T13:27:52;99951.28;;;7.10
48854;BMP280;34673;52.808;17.856;2023-12-28T13:30:19;99957.28;;;7.14
48854;BMP280;34673;52.808;17.856;2023-12-28T13:32:49;99962.47;;;7.09
48854;BMP280;34673;52.808;17.856;2023-12-28T13:35:16;99965.03;;;7.06
48854;BMP280;34673;52.808;17.856;2023-12-28T13:37:44;99971.03;;;7.03
48854;BMP280;34673;52.808;17.856;2023-12-28T13:40:11;99978.75;;;7.03
48854;BMP280;34673;52.808;17.856;2023-12-28T13:42:41;99962.47;;;6.98
48854;BMP280;34673;52.808;17.856;2023-12-28T13:45:09;99971.88;;;6.96
48854;BMP280;34673;52.808;17.856;2023-12-28T13:47:36;99968.44;;;6.94
48854;BMP280;34673;52.808;17.856;2023-12-28T13:50:04;99971.00;;;6.94
48854;BMP280;34673;52.808;17.856;2023-12-28T13:52:33;99969.31;;;6.93
48854;BMP280;34673;52.808;17.856;2023-12-28T13:55:00;99967.59;;;6.95
48854;BMP280;34673;52.808;17.856;2023-12-28T13:57:28;99958.16;;;6.94
48854;BMP280;34673;52.808;17.856;2023-12-28T13:59:55;99957.31;;;6.95
48854;BMP280;34673;52.808;17.856;2023-12-28T14:02:37;99943.59;;;6.93
48854;BMP280;34673;52.808;17.856;2023-12-28T14:05:05;99947.88;;;6.93
48854;BMP280;34673;52.808;17.856;2023-12-28T14:07:33;99935.03;;;6.88
48854;BMP280;34673;52.808;17.856;2023-12-28T14:10:00;99934.16;;;6.86
48854;BMP280;34673;52.808;17.856;2023-12-28T14:12:27;99929.00;;;6.83
48854;BMP280;34673;52.808;17.856;2023-12-28T14:14:54;99926.47;;;6.81